Map

Track Data

SID SEASON NUMBER BASIN SUBBASIN NAME ISO_TIME NATURE LAT LON WMO_WIND WMO_PRES WMO_AGENCY TRACK_TYPE DIST2LAND LANDFALL IFLAG USA_AGENCY USA_ATCF_ID USA_LAT USA_LON USA_RECORD USA_STATUS USA_WIND USA_PRES USA_SSHS USA_R34_NE USA_R34_SE USA_R34_SW USA_R34_NW USA_R50_NE USA_R50_SE USA_R50_SW USA_R50_NW USA_R64_NE USA_R64_SE USA_R64_SW USA_R64_NW USA_POCI USA_ROCI USA_RMW USA_EYE TOKYO_LAT TOKYO_LON TOKYO_GRADE TOKYO_WIND TOKYO_PRES TOKYO_R50_DIR TOKYO_R50_LONG TOKYO_R50_SHORT TOKYO_R30_DIR TOKYO_R30_LONG TOKYO_R30_SHORT TOKYO_LAND CMA_LAT CMA_LON CMA_CAT CMA_WIND CMA_PRES HKO_LAT HKO_LON HKO_CAT HKO_WIND HKO_PRES NEWDELHI_LAT NEWDELHI_LON NEWDELHI_GRADE NEWDELHI_WIND NEWDELHI_PRES NEWDELHI_CI NEWDELHI_DP NEWDELHI_POCI REUNION_LAT REUNION_LON REUNION_TYPE REUNION_WIND REUNION_PRES REUNION_TNUM REUNION_CI REUNION_RMW REUNION_R34_NE REUNION_R34_SE REUNION_R34_SW REUNION_R34_NW REUNION_R50_NE REUNION_R50_SE REUNION_R50_SW REUNION_R50_NW REUNION_R64_NE REUNION_R64_SE REUNION_R64_SW REUNION_R64_NW BOM_LAT BOM_LON BOM_TYPE BOM_WIND BOM_PRES BOM_TNUM BOM_CI BOM_RMW BOM_R34_NE BOM_R34_SE BOM_R34_SW BOM_R34_NW BOM_R50_NE BOM_R50_SE BOM_R50_SW BOM_R50_NW BOM_R64_NE BOM_R64_SE BOM_R64_SW BOM_R64_NW BOM_ROCI BOM_POCI BOM_EYE BOM_POS_METHOD BOM_PRES_METHOD NADI_LAT NADI_LON NADI_CAT NADI_WIND NADI_PRES WELLINGTON_LAT WELLINGTON_LON WELLINGTON_WIND WELLINGTON_PRES DS824_LAT DS824_LON DS824_STAGE DS824_WIND DS824_PRES TD9636_LAT TD9636_LON TD9636_STAGE TD9636_WIND TD9636_PRES TD9635_LAT TD9635_LON TD9635_WIND TD9635_PRES TD9635_ROCI NEUMANN_LAT NEUMANN_LON NEUMANN_CLASS NEUMANN_WIND NEUMANN_PRES MLC_LAT MLC_LON MLC_CLASS MLC_WIND MLC_PRES USA_GUST BOM_GUST BOM_GUST_PER REUNION_GUST REUNION_GUST_PER USA_SEAHGT USA_SEARAD_NE USA_SEARAD_SE USA_SEARAD_SW USA_SEARAD_NW STORM_SPEED STORM_DIR
1910178N20121 1910 23 WP MM NOT_NAMED 1910-06-27 04:00:00 NR 19.5000 121.000 main 101 100 __________O___ -1 19.5000 121.000 2 11 270
1910178N20121 1910 23 WP MM NOT_NAMED 1910-06-27 06:00:00 NR 19.4988 120.605 main 102 102 __________P___ -1 19.4988 120.605 2 11 270
1910178N20121 1910 23 WP MM NOT_NAMED 1910-06-27 09:00:00 NR 19.4966 120.011 main 131 131 __________P___ -1 19.4966 120.011 2 11 270
1910178N20121 1910 23 WP MM NOT_NAMED 1910-06-27 12:00:00 NR 19.4957 119.412 main 176 176 __________P___ -1 19.4957 119.412 2 11 270
1910178N20121 1910 23 WP MM NOT_NAMED 1910-06-27 15:00:00 NR 19.4981 118.805 main 225 225 __________P___ -1 19.4981 118.805 2 11 270
1910178N20121 1910 23 WP MM NOT_NAMED 1910-06-27 16:00:00 NR 19.5000 118.600 main 243 243 __________O___ -1 19.5000 118.600 2 12 271
1910178N20121 1910 23 WP MM NOT_NAMED 1910-06-27 18:00:00 NR 19.5057 118.187 main 280 280 __________P___ -1 19.5057 118.187 2 12 271
1910178N20121 1910 23 WP MM NOT_NAMED 1910-06-27 21:00:00 NR 19.5207 117.574 main 338 348 __________P___ -1 19.5207 117.574 2 11 272
1910178N20121 1910 23 WP MM NOT_NAMED 1910-06-28 00:00:00 NR 19.5457 116.990 main 378 354 __________P___ -1 19.5457 116.990 2 11 273
1910178N20121 1910 23 WP MM NOT_NAMED 1910-06-28 03:00:00 NR 19.5838 116.460 main 354 350 __________P___ -1 19.5838 116.460 2 10 275
1910178N20121 1910 23 WP MM NOT_NAMED 1910-06-28 04:00:00 NR 19.6000 116.300 main 350 343 __________O___ -1 19.6000 116.300 4 8 274
1910178N20121 1910 23 WP MM NOT_NAMED 1910-06-28 06:00:00 NR 19.6115 116.023 main 343 334 __________P___ -1 19.6115 116.023 4 7 274
1910178N20121 1910 23 WP MM NOT_NAMED 1910-06-28 09:00:00 NR 19.6414 115.664 main 334 308 __________P___ -1 19.6414 115.664 4 7 279
1910178N20121 1910 23 WP MM NOT_NAMED 1910-06-28 12:00:00 NR 19.7089 115.340 main 308 288 __________P___ -1 19.7089 115.340 4 6 288
1910178N20121 1910 23 WP MM NOT_NAMED 1910-06-28 15:00:00 NR 19.8386 115.015 main 288 275 __________P___ -1 19.8386 115.015 4 7 295
1910178N20121 1910 23 WP MM NOT_NAMED 1910-06-28 16:00:00 NR 19.9000 114.900 main 275 247 __________O___ -1 19.9000 114.900 4 9 302
1910178N20121 1910 23 WP MM NOT_NAMED 1910-06-28 18:00:00 NR 20.0809 114.603 main 247 202 __________P___ -1 20.0809 114.603 4 11 306
1910178N20121 1910 23 WP MM NOT_NAMED 1910-06-28 21:00:00 NR 20.4158 114.138 main 202 142 __________P___ -1 20.4158 114.138 4 11 309
1910178N20121 1910 23 WP MM NOT_NAMED 1910-06-29 00:00:00 NR 20.7764 113.690 main 142 94 __________P___ -1 20.7764 113.690 4 10 312
1910178N20121 1910 23 WP MM NOT_NAMED 1910-06-29 03:00:00 NR 21.1064 113.306 main 94 80 __________P___ -1 21.1064 113.306 4 9 313
1910178N20121 1910 23 WP MM NOT_NAMED 1910-06-29 04:00:00 NR 21.2000 113.200 main 80 67 __________O___ -1 21.2000 113.200 4 7 310
1910178N20121 1910 23 WP MM NOT_NAMED 1910-06-29 06:00:00 NR 21.3180 113.037 main 67 54 __________P___ -1 21.3180 113.037 4 5 308
1910178N20121 1910 23 WP MM NOT_NAMED 1910-06-29 09:00:00 NR 21.4448 112.868 main 54 39 __________P___ -1 21.4448 112.868 4 3 312
1910178N20121 1910 23 WP MM NOT_NAMED 1910-06-29 12:00:00 NR 21.5446 112.769 main 39 15 __________P___ -1 21.5446 112.769 4 3 326
1910178N20121 1910 23 WP MM NOT_NAMED 1910-06-29 15:00:00 NR 21.6546 112.713 main 15 15 __________P___ -1 21.6546 112.713 4 3 338
1910178N20121 1910 23 WP MM NOT_NAMED 1910-06-29 16:00:00 NR 21.7000 112.700 main 15 10 __________O___ -1 21.7000 112.700 4 3 348
1910178N20121 1910 23 WP MM NOT_NAMED 1910-06-29 18:00:00 NR 21.8094 112.677 main 10 0 __________P___ -1 21.8094 112.677 4 4 352
1910178N20121 1910 23 WP MM NOT_NAMED 1910-06-29 21:00:00 NR 22.0137 112.649 main 0 0 __________P___ -1 22.0137 112.649 4 4 354
1910178N20121 1910 23 WP MM NOT_NAMED 1910-06-30 00:00:00 NR 22.2528 112.626 main 0 0 __________P___ -1 22.2528 112.626 4 5 354
1910178N20121 1910 23 WP MM NOT_NAMED 1910-06-30 03:00:00 NR 22.5118 112.606 main 0 0 __________P___ -1 22.5118 112.606 4 5 0
1910178N20121 1910 23 WP MM NOT_NAMED 1910-06-30 04:00:00 NR 22.6000 112.600 main 0 __________O___ -1 22.6000 112.600 4 5 355

Digital Typhoon Data and Search

About IBTrACS Database

This database is a web-friendly format of International Best Track Archive for Climate Stewardship (IBTrACS), a global best track data archive curated by NOAA dating back to 1842.

Updated: 2021-10-21